Terminal Aerodrome Forecast
Issued by NWS Charleston, WV

Current Version | Previous Version | Text Only | Print | Product List | Glossary Off
Versions: 1 2 3 4 5 6 7 8 9 10 11 12 13 14 15 16 17 18 19 20 21 22

287
FTUS41 KRLX 110538
TAFPKB
TAF
KPKB 110538Z 1106/1206 26008KT P6SM BKN050
     FM111000 26007KT P6SM BKN035
     FM111200 27006KT P6SM BKN030
     FM111800 29008KT P6SM SCT035
     FM120400 00000KT P6SM BKN250=

USA.gov is the U.S. government's official web portal to all federal, state and local government web resources and services.